CA-0103 weather

CLOSED Crater Airport
Manitoba, Canada

Public forecast

Using degrees Celsius for public forecast. Weather courtesy of forecast.io.

METAR (pilot weather report)

Closest report is Brandon Municipal Airport, 5.9 nm (10.9 km) W. Retrieved 2019/05/22 18:00 UTC (32 minutes ago):

CYBR 221800Z 07025G36KT 15SM SCT110 OVC230 16/00 A2978 RMK AC3CS5 SLP092 DENSITY ALT 2000FT

TAF (pilot weather forecast)

Closest forecast is Brandon Municipal Airport, 5.9 nm (10.9 km) W. Retrieved 2019/05/22 18:39 UTC (0 seconds ago):

TAF CYBR 221738Z 2218/2306 05020G30KT P6SM SCT160 OVC240 FM230000 07015G25KT P6SM BKN140 BECMG 2304/2306 33006KT RMK NXT FCST BY 230000Z